Time;durP1;ratioP1;P1;durP2;ratioP2;P2;SDS_P1;SDS_P2;PMS_P1;PMS_P2;Temp;Humidity;BMP_temperature;BMP_pressure;BME280_temperature;BME280_humidity;BME280_pressure;Samples;Min_cycle;Max_cycle;Signal;HPM_P1;HPM_P2
2021/03/03 00:01:40;;;;;;;15.40;8.57;;;17.90;50.80;;;;;;5035543;28;20051;-63
2021/03/03 00:04:06;;;;;;;14.45;8.07;;;17.90;50.90;;;;;;5037267;28;20044;-60
2021/03/03 00:06:31;;;;;;;14.95;8.40;;;17.80;50.80;;;;;;5034230;28;20279;-62
2021/03/03 00:08:58;;;;;;;14.50;8.43;;;17.80;50.70;;;;;;5034440;28;20033;-63
2021/03/03 00:11:23;;;;;;;14.48;8.05;;;17.90;50.70;;;;;;5036879;28;22177;-63
2021/03/03 00:13:49;;;;;;;12.55;7.70;;;17.80;50.70;;;;;;5037321;28;20122;-63
2021/03/03 00:16:14;;;;;;;14.00;7.60;;;17.90;50.70;;;;;;5036595;28;20161;-63
2021/03/03 00:18:40;;;;;;;12.38;7.47;;;17.80;50.70;;;;;;5035119;28;20037;-59
2021/03/03 00:21:05;;;;;;;12.48;7.50;;;17.80;50.60;;;;;;5034127;28;20029;-63
2021/03/03 00:23:31;;;;;;;12.45;7.85;;;17.80;50.60;;;;;;5035660;28;20670;-62
2021/03/03 00:25:56;;;;;;;10.43;6.60;;;17.80;50.60;;;;;;5034883;28;20037;-63
2021/03/03 00:28:22;;;;;;;9.98;6.30;;;17.80;50.60;;;;;;5036936;28;20117;-59
2021/03/03 00:30:47;;;;;;;12.07;7.10;;;17.80;50.50;;;;;;5036879;28;20047;-62
2021/03/03 00:33:13;;;;;;;10.80;6.35;;;17.80;50.40;;;;;;5016023;28;20030;-63
2021/03/03 00:35:38;;;;;;;11.15;7.25;;;17.80;50.30;;;;;;5040765;28;20033;-59
2021/03/03 00:38:04;;;;;;;10.02;6.38;;;17.80;50.40;;;;;;5033964;28;20061;-63
2021/03/03 00:40:30;;;;;;;10.52;5.93;;;17.80;50.20;;;;;;5033773;28;20095;-63
2021/03/03 00:42:56;;;;;;;10.88;6.57;;;17.80;50.20;;;;;;5034691;28;20092;-61
2021/03/03 00:45:21;;;;;;;11.18;6.00;;;17.80;50.10;;;;;;5021766;28;20033;-60
2021/03/03 00:47:47;;;;;;;8.43;5.65;;;17.80;50.10;;;;;;5034644;28;20108;-61
2021/03/03 00:50:13;;;;;;;10.23;5.55;;;17.80;50.10;;;;;;5036803;28;20037;-63
2021/03/03 00:52:38;;;;;;;8.25;5.47;;;17.90;50.10;;;;;;5029474;28;20040;-63
2021/03/03 00:55:04;;;;;;;9.63;5.78;;;17.80;50.10;;;;;;5035762;28;20033;-63
2021/03/03 00:57:30;;;;;;;9.25;5.28;;;17.90;50.00;;;;;;5040201;28;20055;-63
2021/03/03 00:59:56;;;;;;;7.38;4.55;;;17.80;49.90;;;;;;4999165;28;20030;-60
2021/03/03 01:02:21;;;;;;;7.43;5.03;;;17.80;50.00;;;;;;5034061;28;20030;-63
2021/03/03 01:04:47;;;;;;;6.20;4.50;;;17.80;49.80;;;;;;5035670;28;20099;-64
2021/03/03 01:07:12;;;;;;;7.00;4.45;;;17.80;49.80;;;;;;5036828;28;20234;-64
2021/03/03 01:09:38;;;;;;;8.68;4.55;;;17.80;49.90;;;;;;5032635;28;20029;-65
2021/03/03 01:12:03;;;;;;;8.07;5.07;;;17.80;49.80;;;;;;5033788;28;20037;-63
2021/03/03 01:14:29;;;;;;;7.03;4.88;;;17.80;49.70;;;;;;5040228;28;20041;-63
2021/03/03 01:16:54;;;;;;;7.93;4.72;;;17.90;49.70;;;;;;4999336;28;20025;-62
2021/03/03 01:19:20;;;;;;;7.43;4.30;;;17.80;49.60;;;;;;5031865;28;20033;-64
2021/03/03 01:21:45;;;;;;;7.40;4.82;;;17.90;49.60;;;;;;5034417;28;20052;-63
2021/03/03 01:24:13;;;;;;;7.15;5.00;;;17.90;49.60;;;;;;5035880;28;20029;-62
2021/03/03 01:26:38;;;;;;;6.88;4.13;;;17.80;49.50;;;;;;5018395;28;20443;-58
2021/03/03 01:29:04;;;;;;;7.60;4.10;;;17.90;49.50;;;;;;5034023;28;20039;-63
2021/03/03 01:31:29;;;;;;;5.78;4.72;;;17.90;49.50;;;;;;5036372;28;20507;-61
2021/03/03 01:33:55;;;;;;;5.43;4.00;;;17.90;49.50;;;;;;5027639;28;20029;-61
2021/03/03 01:36:20;;;;;;;5.28;3.97;;;17.90;49.40;;;;;;5035552;28;20035;-62
2021/03/03 01:38:46;;;;;;;5.55;4.00;;;17.90;49.40;;;;;;5017223;28;20030;-57
2021/03/03 01:41:11;;;;;;;6.60;4.03;;;17.90;50.00;;;;;;5030507;28;20042;-57
2021/03/03 01:43:37;;;;;;;6.47;4.20;;;17.90;49.40;;;;;;5039802;28;20394;-61
2021/03/03 01:46:02;;;;;;;5.80;3.67;;;17.80;49.30;;;;;;5037005;28;20440;-58
2021/03/03 01:48:28;;;;;;;5.60;3.90;;;17.80;49.30;;;;;;5041540;28;20572;-58
2021/03/03 01:50:53;;;;;;;5.72;3.65;;;17.90;49.40;;;;;;5036785;28;20063;-59
2021/03/03 01:53:19;;;;;;;5.90;4.13;;;17.80;49.30;;;;;;5036699;28;20033;-62
2021/03/03 01:55:44;;;;;;;5.57;3.88;;;17.80;49.30;;;;;;5027617;28;21108;-62
2021/03/03 01:58:10;;;;;;;4.65;3.47;;;17.80;49.30;;;;;;5040641;28;20040;-64
2021/03/03 02:00:35;;;;;;;4.47;3.72;;;17.80;49.30;;;;;;5001186;28;20026;-62
2021/03/03 02:03:01;;;;;;;4.82;3.47;;;17.80;49.30;;;;;;5033493;28;20038;-61
2021/03/03 02:05:27;;;;;;;5.00;3.33;;;17.80;49.30;;;;;;5030922;28;20033;-63
2021/03/03 02:08:01;;;;;;;5.82;3.53;;;17.80;49.40;;;;;;5032252;28;20576;-61
2021/03/03 02:10:38;;;;;;;6.15;3.42;;;17.80;49.30;;;;;;5018223;28;20067;-63
2021/03/03 02:13:10;;;;;;;5.30;3.20;;;17.80;49.40;;;;;;5020954;28;20033;-63
2021/03/03 02:15:36;;;;;;;5.38;3.55;;;17.70;49.40;;;;;;5010261;28;20041;-62
2021/03/03 02:18:03;;;;;;;4.15;2.78;;;17.80;49.50;;;;;;5008570;28;20080;-62
2021/03/03 02:20:31;;;;;;;4.32;3.25;;;17.70;49.40;;;;;;5017309;28;20041;-60
2021/03/03 02:23:13;;;;;;;5.05;3.30;;;17.70;49.40;;;;;;5009802;28;20103;-63
2021/03/03 02:25:39;;;;;;;6.30;3.58;;;17.70;49.40;;;;;;5018555;28;20032;-60
2021/03/03 02:28:06;;;;;;;4.93;3.35;;;17.70;49.40;;;;;;4994237;28;20034;-62
2021/03/03 02:30:31;;;;;;;4.72;3.28;;;17.70;49.50;;;;;;5001267;28;20106;-59
2021/03/03 02:32:57;;;;;;;6.15;3.78;;;17.70;49.50;;;;;;5018736;28;20041;-62
2021/03/03 02:35:23;;;;;;;4.43;3.58;;;17.70;49.30;;;;;;5013633;28;20087;-62
2021/03/03 02:37:48;;;;;;;6.20;3.63;;;17.70;49.40;;;;;;4998095;28;20068;-62
2021/03/03 02:40:14;;;;;;;4.72;3.13;;;17.70;49.30;;;;;;5014529;28;20042;-58
2021/03/03 02:42:40;;;;;;;3.95;3.13;;;17.70;49.30;;;;;;5016629;28;20042;-63
2021/03/03 02:45:10;;;;;;;4.28;2.72;;;17.70;49.30;;;;;;5000267;28;20047;-62
2021/03/03 02:47:36;;;;;;;4.18;2.75;;;17.80;49.20;;;;;;5031225;28;20505;-62
2021/03/03 02:50:02;;;;;;;5.05;3.13;;;17.70;49.20;;;;;;5031155;28;20096;-61
2021/03/03 02:52:27;;;;;;;4.28;3.22;;;17.80;49.20;;;;;;5033990;28;20037;-62
2021/03/03 02:54:54;;;;;;;3.90;2.97;;;17.70;49.00;;;;;;5015640;28;20595;-63
2021/03/03 02:57:20;;;;;;;4.20;3.25;;;17.70;49.00;;;;;;5034558;28;20091;-64
2021/03/03 02:59:49;;;;;;;3.88;2.83;;;17.70;49.10;;;;;;5014303;28;20029;-60
2021/03/03 03:02:15;;;;;;;2.85;2.33;;;17.70;49.00;;;;;;4993805;28;21841;-64
2021/03/03 03:04:45;;;;;;;4.05;2.72;;;17.70;49.00;;;;;;5014377;28;20142;-64
2021/03/03 03:07:20;;;;;;;3.97;3.08;;;17.70;48.90;;;;;;5013965;28;20132;-63
2021/03/03 03:09:46;;;;;;;;;;;17.70;48.90;;;;;;5034056;28;20098;-64
2021/03/03 03:12:12;;;;;;;3.20;2.42;;;17.70;48.80;;;;;;5035216;28;19912;-62
2021/03/03 03:14:37;;;;;;;5.68;3.25;;;17.70;48.80;;;;;;5024871;28;20056;-64
2021/03/03 03:17:03;;;;;;;5.85;2.90;;;17.70;48.80;;;;;;5016862;28;20057;-64
2021/03/03 03:19:35;;;;;;;3.90;2.78;;;17.70;48.80;;;;;;5013873;28;20045;-64
2021/03/03 03:22:01;;;;;;;3.33;2.60;;;17.70;48.80;;;;;;5014292;28;20033;-62
2021/03/03 03:24:27;;;;;;;3.47;2.65;;;17.70;48.80;;;;;;5030698;28;20741;-63
2021/03/03 03:26:52;;;;;;;4.15;2.80;;;17.70;48.80;;;;;;5016542;28;20381;-64
2021/03/03 03:29:18;;;;;;;3.20;2.75;;;17.70;48.80;;;;;;5020114;28;20037;-64
2021/03/03 03:31:44;;;;;;;3.72;3.08;;;17.70;48.80;;;;;;5016573;28;20042;-65
2021/03/03 03:34:10;;;;;;;4.30;2.75;;;17.70;48.80;;;;;;5016288;28;20045;-64
2021/03/03 03:36:36;;;;;;;3.83;2.80;;;17.70;48.90;;;;;;5017162;28;20073;-60
2021/03/03 03:39:04;;;;;;;3.08;2.30;;;17.70;48.90;;;;;;5021021;28;20037;-61
2021/03/03 03:41:29;;;;;;;2.60;2.15;;;17.70;48.80;;;;;;5020872;28;20172;-63
2021/03/03 03:43:55;;;;;;;4.18;2.75;;;17.70;48.90;;;;;;5002861;28;20561;-60
2021/03/03 03:46:20;;;;;;;3.15;2.55;;;17.70;49.40;;;;;;5021071;28;20111;-63
2021/03/03 03:48:46;;;;;;;2.80;2.08;;;17.70;48.80;;;;;;5018240;28;20025;-64
2021/03/03 03:51:11;;;;;;;2.00;1.80;;;17.70;48.80;;;;;;5017274;28;20029;-63
2021/03/03 03:53:37;;;;;;;4.60;2.80;;;17.60;48.70;;;;;;5019811;28;20159;-62
2021/03/03 03:56:06;;;;;;;2.83;2.33;;;17.60;48.60;;;;;;5021658;28;20030;-61
2021/03/03 03:58:31;;;;;;;3.30;2.47;;;17.70;48.60;;;;;;5017332;28;20036;-64
2021/03/03 04:00:56;;;;;;;2.65;2.40;;;17.70;48.60;;;;;;5031047;28;20026;-60
2021/03/03 04:03:22;;;;;;;3.55;2.53;;;17.80;48.60;;;;;;5036854;28;20033;-62
2021/03/03 04:05:47;;;;;;;3.92;2.63;;;17.70;48.60;;;;;;5038010;28;20036;-62
2021/03/03 04:08:13;;;;;;;4.18;3.00;;;17.70;48.50;;;;;;5036271;28;20025;-61
2021/03/03 04:10:38;;;;;;;3.97;2.63;;;17.70;48.40;;;;;;5034632;28;20040;-63
2021/03/03 04:13:04;;;;;;;3.25;2.58;;;17.70;48.50;;;;;;5034631;28;20022;-63
2021/03/03 04:15:30;;;;;;;3.25;2.58;;;17.70;48.40;;;;;;5016741;28;20022;-61
2021/03/03 04:17:55;;;;;;;3.83;2.67;;;17.70;48.40;;;;;;5034523;28;20037;-64
2021/03/03 04:20:21;;;;;;;3.20;2.65;;;17.70;48.30;;;;;;5041815;28;21490;-60
2021/03/03 04:22:46;;;;;;;3.75;3.03;;;17.70;48.30;;;;;;5034561;28;20045;-64
2021/03/03 04:25:16;;;;;;;3.63;2.20;;;17.80;48.20;;;;;;5033584;28;20037;-63
2021/03/03 04:27:41;;;;;;;3.13;2.40;;;17.70;48.10;;;;;;5027103;28;20029;-59
2021/03/03 04:30:09;;;;;;;3.42;2.42;;;17.70;48.20;;;;;;5037175;28;20028;-63
2021/03/03 04:32:34;;;;;;;3.00;2.63;;;17.70;48.10;;;;;;5043557;28;20033;-61
2021/03/03 04:35:00;;;;;;;3.75;2.50;;;17.70;48.10;;;;;;5034040;28;20091;-63
2021/03/03 04:37:25;;;;;;;3.10;2.35;;;17.70;48.10;;;;;;5035243;28;20033;-59
2021/03/03 04:39:51;;;;;;;2.30;2.10;;;17.70;48.10;;;;;;5036182;28;20041;-63
2021/03/03 04:42:16;;;;;;;4.22;3.05;;;17.70;48.00;;;;;;5029996;28;20095;-60
2021/03/03 04:44:42;;;;;;;3.13;2.58;;;17.70;48.00;;;;;;5037862;28;20680;-60
2021/03/03 04:47:07;;;;;;;4.10;2.60;;;17.70;48.00;;;;;;5037115;28;20033;-64
2021/03/03 04:49:33;;;;;;;4.25;2.72;;;17.70;47.90;;;;;;5031157;28;20036;-60
2021/03/03 04:51:58;;;;;;;3.10;2.30;;;17.70;47.90;;;;;;5038082;28;20408;-61
2021/03/03 04:54:24;;;;;;;3.17;2.40;;;17.70;47.90;;;;;;5034565;28;20492;-62
2021/03/03 04:56:49;;;;;;;2.90;2.60;;;17.70;48.00;;;;;;5040772;28;20034;-62
2021/03/03 04:59:15;;;;;;;3.38;2.50;;;17.70;48.10;;;;;;5033442;28;20079;-64
2021/03/03 05:01:40;;;;;;;3.33;2.65;;;17.60;48.10;;;;;;5037135;28;20044;-60
2021/03/03 05:04:06;;;;;;;5.10;3.08;;;17.70;48.10;;;;;;5037003;28;20068;-61
2021/03/03 05:06:31;;;;;;;3.33;2.80;;;17.60;48.10;;;;;;5034584;28;20036;-62
2021/03/03 05:08:57;;;;;;;3.50;2.70;;;17.60;48.10;;;;;;5034682;28;20045;-60
2021/03/03 05:11:22;;;;;;;3.90;2.83;;;17.60;48.00;;;;;;5014883;28;20048;-60
2021/03/03 05:13:48;;;;;;;3.75;3.03;;;17.60;48.10;;;;;;5033641;28;20120;-60
2021/03/03 05:16:13;;;;;;;4.03;2.70;;;17.60;48.00;;;;;;5033053;28;20037;-63
2021/03/03 05:18:39;;;;;;;2.95;2.63;;;17.60;48.00;;;;;;5036382;28;20033;-64
2021/03/03 05:21:05;;;;;;;2.90;2.53;;;17.60;48.00;;;;;;5035971;28;20040;-63
2021/03/03 05:23:31;;;;;;;5.45;2.75;;;17.60;48.00;;;;;;5028401;28;20036;-63
2021/03/03 05:25:57;;;;;;;3.03;2.33;;;17.60;48.00;;;;;;5036618;28;20028;-62
2021/03/03 05:28:23;;;;;;;3.33;2.53;;;17.60;48.00;;;;;;5035051;28;20041;-63
2021/03/03 05:30:48;;;;;;;3.83;2.78;;;17.60;48.10;;;;;;5036558;28;20068;-64
2021/03/03 05:33:30;;;;;;;3.97;3.03;;;17.60;48.20;;;;;;5036494;28;20021;-63
2021/03/03 05:35:57;;;;;;;4.18;3.13;;;17.60;48.70;;;;;;5033243;28;20033;-59
2021/03/03 05:38:23;;;;;;;7.30;3.00;;;17.60;48.90;;;;;;5023908;28;20136;-62
2021/03/03 05:40:48;;;;;;;7.40;2.60;;;17.60;49.00;;;;;;5036291;28;20559;-61
2021/03/03 05:43:14;;;;;;;6.40;2.38;;;17.60;49.10;;;;;;5035956;28;20032;-54
2021/03/03 05:45:43;;;;;;;8.80;2.92;;;17.60;49.10;;;;;;5036004;28;20036;-60
2021/03/03 05:48:31;;;;;;;9.43;2.85;;;17.60;49.10;;;;;;5035709;28;20112;-64
2021/03/03 05:51:00;;;;;;;4.95;2.67;;;17.60;49.00;;;;;;5012443;28;20503;-59
2021/03/03 05:53:27;;;;;;;10.25;3.53;;;17.60;49.00;;;;;;5034584;28;20747;-60
2021/03/03 05:55:55;;;;;;;7.55;2.90;;;17.60;49.10;;;;;;5033087;28;20482;-63
2021/03/03 05:58:20;;;;;;;8.57;3.30;;;17.60;49.00;;;;;;5037641;28;20439;-57
2021/03/03 06:00:47;;;;;;;4.35;2.83;;;17.70;49.00;;;;;;5016614;28;20033;-64
2021/03/03 06:03:13;;;;;;;7.88;2.92;;;17.70;48.90;;;;;;5034486;28;20033;-57
2021/03/03 06:05:38;;;;;;;4.10;2.97;;;17.70;48.90;;;;;;5001456;28;20044;-59
2021/03/03 06:08:04;;;;;;;5.35;2.97;;;17.70;49.50;;;;;;5029164;28;20025;-62
2021/03/03 06:10:30;;;;;;;3.35;2.63;;;17.70;48.80;;;;;;5033666;28;20040;-59
2021/03/03 06:12:55;;;;;;;8.40;2.60;;;17.70;49.40;;;;;;5035732;28;20427;-60
2021/03/03 06:15:21;;;;;;;4.95;3.20;;;17.70;48.80;;;;;;5034733;28;20411;-60
2021/03/03 06:17:46;;;;;;;5.43;3.80;;;17.70;49.00;;;;;;5031328;28;20037;-62
2021/03/03 06:20:12;;;;;;;5.35;3.70;;;17.60;49.20;;;;;;5031931;28;20037;-63
2021/03/03 06:22:38;;;;;;;18.85;10.75;;;17.60;49.30;;;;;;5034419;28;20041;-64
2021/03/03 06:25:15;;;;;;;39.20;19.65;;;17.60;49.70;;;;;;5044393;28;20091;-64
2021/03/03 06:27:41;;;;;;;29.90;17.23;;;17.50;50.50;;;;;;5026396;28;20365;-60
2021/03/03 06:30:17;;;;;;;31.88;16.90;;;17.50;50.30;;;;;;5043758;28;20033;-63
2021/03/03 06:32:56;;;;;;;29.98;15.48;;;17.60;49.90;;;;;;5040916;28;20044;-63
2021/03/03 06:35:35;;;;;;;25.08;15.55;;;17.60;49.40;;;;;;5042908;28;20526;-64
2021/03/03 06:38:00;;;;;;;28.92;15.05;;;17.60;49.10;;;;;;5027544;28;20162;-64
2021/03/03 06:40:26;;;;;;;25.70;14.82;;;17.60;48.90;;;;;;5043644;28;20497;-63
2021/03/03 06:42:51;;;;;;;18.85;12.65;;;17.60;48.70;;;;;;5044240;28;20621;-63
2021/03/03 06:45:30;;;;;;;25.33;13.65;;;17.60;48.40;;;;;;5026060;28;20680;-64
2021/03/03 06:47:57;;;;;;;27.33;13.05;;;17.60;48.20;;;;;;5043248;28;20029;-64
2021/03/03 06:50:35;;;;;;;19.55;10.93;;;17.60;48.00;;;;;;5042755;28;20108;-63
2021/03/03 06:53:00;;;;;;;19.30;11.00;;;17.60;48.60;;;;;;5026176;28;20037;-64
2021/03/03 06:55:45;;;;;;;18.30;9.90;;;17.60;48.80;;;;;;5026023;28;20144;-63
2021/03/03 06:58:27;;;;;;;16.33;10.00;;;17.60;48.70;;;;;;5043534;28;20029;-63
2021/03/03 07:00:53;;;;;;;15.02;9.77;;;17.60;48.20;;;;;;5043136;28;20051;-64
2021/03/03 07:03:34;;;;;;;16.63;8.68;;;17.60;47.80;;;;;;5045010;28;20488;-63
2021/03/03 07:06:03;;;;;;;13.77;8.95;;;17.60;47.50;;;;;;5028788;28;20047;-63
2021/03/03 07:08:29;;;;;;;14.43;9.15;;;17.60;47.30;;;;;;5047423;28;20032;-63
2021/03/03 07:10:54;;;;;;;13.07;9.43;;;17.60;47.00;;;;;;5046664;28;20033;-60
2021/03/03 07:13:39;;;;;;;15.57;9.00;;;17.70;46.70;;;;;;5046963;28;20033;-64
2021/03/03 07:16:06;;;;;;;14.17;8.67;;;17.70;46.70;;;;;;5047255;28;20029;-63
2021/03/03 07:18:36;;;;;;;15.63;8.75;;;17.60;46.50;;;;;;5014078;28;20267;-60
2021/03/03 07:21:01;;;;;;;12.93;8.45;;;17.70;46.40;;;;;;5019028;28;20041;-58
2021/03/03 07:23:43;;;;;;;14.32;8.05;;;17.70;46.40;;;;;;5048340;28;20103;-61
2021/03/03 07:26:10;;;;;;;13.40;7.93;;;17.60;46.70;;;;;;5047761;28;20028;-64
2021/03/03 07:28:36;;;;;;;11.02;8.15;;;17.60;46.80;;;;;;5048012;28;20669;-64
2021/03/03 07:31:02;;;;;;;10.55;7.15;;;17.60;46.90;;;;;;5047611;28;20033;-58
2021/03/03 07:33:27;;;;;;;13.13;7.53;;;17.60;47.00;;;;;;5030572;28;20035;-62
2021/03/03 07:35:53;;;;;;;13.73;7.75;;;17.60;47.10;;;;;;5029013;28;20021;-62
2021/03/03 07:38:18;;;;;;;11.82;7.20;;;17.70;47.40;;;;;;5047721;28;20480;-62
2021/03/03 07:40:44;;;;;;;12.00;7.40;;;17.60;47.60;;;;;;4997658;28;20120;-61
2021/03/03 07:43:09;;;;;;;12.98;7.53;;;17.60;47.90;;;;;;5030442;28;20029;-57
2021/03/03 07:45:36;;;;;;;9.50;6.38;;;17.50;48.20;;;;;;5013445;28;20041;-62
2021/03/03 07:48:03;;;;;;;12.85;6.65;;;17.50;48.50;;;;;;5048099;28;20499;-59
2021/03/03 07:50:28;;;;;;;11.02;6.43;;;17.40;48.70;;;;;;5029443;28;20116;-62
2021/03/03 07:52:54;;;;;;;12.25;7.22;;;17.40;49.00;;;;;;5014009;28;20035;-62
2021/03/03 07:55:20;;;;;;;10.00;6.88;;;17.40;49.20;;;;;;5030068;28;20515;-59
2021/03/03 07:57:50;;;;;;;10.35;6.55;;;17.40;50.00;;;;;;5047882;28;20052;-63
2021/03/03 08:00:20;;;;;;;9.90;6.50;;;17.40;49.50;;;;;;5010820;28;20108;-62
2021/03/03 08:02:47;;;;;;;11.57;6.85;;;17.40;49.60;;;;;;5045841;28;20538;-63
2021/03/03 08:05:33;;;;;;;9.15;6.50;;;17.40;49.70;;;;;;5025546;28;20394;-63
2021/03/03 08:08:24;;;;;;;7.75;6.07;;;17.40;49.70;;;;;;5045976;28;20216;-62
2021/03/03 08:10:58;;;;;;;9.70;7.13;;;17.40;49.70;;;;;;5025578;28;20034;-62
2021/03/03 08:13:30;;;;;;;8.80;6.53;;;17.40;49.70;;;;;;5008407;28;20022;-62
2021/03/03 08:15:58;;;;;;;9.60;6.32;;;17.50;49.70;;;;;;5024766;28;20028;-61
2021/03/03 08:18:27;;;;;;;8.15;5.97;;;17.50;49.70;;;;;;5025598;28;20708;-61
2021/03/03 08:20:54;;;;;;;8.52;5.25;;;17.50;49.60;;;;;;5024813;28;20058;-57
2021/03/03 08:23:34;;;;;;;8.55;6.32;;;17.50;49.60;;;;;;5007912;28;20034;-63
2021/03/03 08:26:06;;;;;;;9.30;6.15;;;17.50;49.60;;;;;;5025605;28;20038;-55
2021/03/03 08:28:41;;;;;;;9.65;5.78;;;17.50;49.60;;;;;;5025435;28;20040;-63
2021/03/03 08:31:06;;;;;;;8.00;5.55;;;17.50;49.50;;;;;;5026013;28;20065;-62
2021/03/03 08:33:32;;;;;;;9.57;6.15;;;17.50;49.40;;;;;;5025866;28;20512;-59
2021/03/03 08:35:58;;;;;;;8.82;5.78;;;17.60;49.50;;;;;;5024362;28;20447;-62
2021/03/03 08:38:23;;;;;;;7.90;5.88;;;17.60;49.50;;;;;;5025108;28;20037;-61
2021/03/03 08:40:49;;;;;;;7.97;5.70;;;17.50;49.40;;;;;;5026407;28;20579;-62
2021/03/03 08:43:36;;;;;;;9.13;6.32;;;17.50;49.40;;;;;;5025457;28;20036;-62
2021/03/03 08:46:20;;;;;;;6.72;5.50;;;17.50;49.40;;;;;;5025655;28;20036;-60
2021/03/03 08:49:05;;;;;;;8.23;5.60;;;17.50;49.30;;;;;;5026092;28;20290;-62
2021/03/03 08:51:34;;;;;;;7.68;5.72;;;17.50;49.30;;;;;;5009863;28;20025;-63
2021/03/03 08:54:01;;;;;;;9.15;5.43;;;17.50;49.20;;;;;;5025634;28;20042;-59
2021/03/03 08:56:43;;;;;;;6.35;4.97;;;17.60;49.20;;;;;;5025271;28;20033;-62
2021/03/03 08:59:30;;;;;;;7.45;5.38;;;17.60;49.10;;;;;;5025757;28;20053;-63
2021/03/03 09:02:02;;;;;;;7.05;5.25;;;17.60;49.10;;;;;;5024646;28;20038;-60
2021/03/03 09:04:46;;;;;;;7.95;5.50;;;17.60;49.00;;;;;;5026180;28;20017;-62
2021/03/03 09:07:22;;;;;;;8.80;5.00;;;17.60;48.90;;;;;;5025617;28;20100;-62
2021/03/03 09:10:03;;;;;;;8.35;5.00;;;17.60;48.80;;;;;;5025482;28;20040;-63
2021/03/03 09:12:30;;;;;;;7.15;5.28;;;17.60;48.80;;;;;;5006289;28;20374;-59
2021/03/03 09:14:57;;;;;;;5.97;4.60;;;17.60;48.70;;;;;;5025346;28;20037;-63
2021/03/03 09:17:27;;;;;;;9.32;5.38;;;17.60;49.30;;;;;;5025802;28;20040;-63
2021/03/03 09:19:53;;;;;;;6.78;4.82;;;17.60;48.60;;;;;;5023961;28;20076;-62
2021/03/03 09:22:33;;;;;;;7.25;5.18;;;17.60;48.50;;;;;;5024681;28;20033;-63
2021/03/03 09:25:04;;;;;;;7.28;4.82;;;17.70;48.40;;;;;;5044463;28;20029;-64
2021/03/03 09:27:29;;;;;;;7.88;5.70;;;17.70;48.40;;;;;;5043883;28;20032;-63
2021/03/03 09:29:55;;;;;;;7.22;5.05;;;17.60;48.50;;;;;;5044843;28;20025;-62
2021/03/03 09:32:21;;;;;;;8.35;5.50;;;17.60;48.70;;;;;;5027628;28;20029;-58
2021/03/03 09:34:51;;;;;;;7.57;5.68;;;17.70;48.70;;;;;;5043657;28;20089;-65
2021/03/03 09:37:17;;;;;;;5.97;4.45;;;17.60;48.70;;;;;;5044692;28;20116;-61
2021/03/03 09:39:56;;;;;;;6.43;4.60;;;17.60;48.90;;;;;;5044326;28;20128;-64
2021/03/03 09:42:22;;;;;;;5.70;4.57;;;17.60;49.10;;;;;;5027960;28;20402;-63
2021/03/03 09:44:52;;;;;;;7.30;4.80;;;17.60;49.20;;;;;;5044766;28;20029;-65
2021/03/03 09:47:26;;;;;;;10.48;5.18;;;17.70;49.30;;;;;;5044041;28;20147;-60
2021/03/03 09:49:52;;;;;;;7.38;5.13;;;17.70;49.10;;;;;;5044050;28;20039;-64
2021/03/03 09:52:17;;;;;;;7.97;5.10;;;17.70;49.30;;;;;;5043042;28;20033;-62
2021/03/03 09:54:43;;;;;;;10.68;5.32;;;17.70;49.30;;;;;;5025886;28;20051;-63
2021/03/03 09:57:09;;;;;;;8.48;4.95;;;17.70;49.20;;;;;;5043457;28;20467;-64
2021/03/03 09:59:36;;;;;;;7.32;4.80;;;17.70;49.10;;;;;;5044366;28;20032;-65
2021/03/03 10:02:02;;;;;;;7.75;4.80;;;17.70;49.30;;;;;;5026835;28;20507;-65
2021/03/03 10:04:27;;;;;;;5.65;4.53;;;17.70;49.10;;;;;;5009998;28;20040;-64
2021/03/03 10:06:55;;;;;;;7.68;4.80;;;17.70;49.10;;;;;;5010102;28;20025;-62
2021/03/03 10:09:21;;;;;;;7.40;5.32;;;17.70;49.00;;;;;;5009984;28;20116;-64
2021/03/03 10:11:46;;;;;;;9.23;5.32;;;17.70;48.90;;;;;;5025148;28;20109;-64
2021/03/03 10:14:13;;;;;;;9.35;4.70;;;17.70;49.00;;;;;;5043953;28;20025;-60
2021/03/03 10:16:39;;;;;;;9.05;5.38;;;17.70;48.80;;;;;;5025886;28;20017;-61
2021/03/03 10:19:06;;;;;;;6.65;4.78;;;17.70;48.80;;;;;;5026341;28;20499;-63
2021/03/03 10:21:32;;;;;;;6.43;5.20;;;17.70;48.70;;;;;;5044680;28;20033;-60
2021/03/03 10:23:58;;;;;;;7.72;4.65;;;17.70;48.60;;;;;;5044095;28;20494;-61
2021/03/03 10:26:39;;;;;;;6.57;4.53;;;17.70;48.70;;;;;;5009973;28;20021;-62
2021/03/03 10:29:04;;;;;;;9.57;5.28;;;17.70;48.70;;;;;;5030005;28;20108;-60
2021/03/03 10:31:30;;;;;;;8.43;5.25;;;17.70;48.60;;;;;;5044705;28;20484;-63
2021/03/03 10:33:55;;;;;;;7.55;4.70;;;17.70;48.70;;;;;;5044517;28;20029;-61
2021/03/03 10:36:21;;;;;;;6.13;4.47;;;17.70;48.60;;;;;;5010277;28;20033;-62
2021/03/03 10:38:51;;;;;;;6.22;4.97;;;17.70;48.60;;;;;;5043209;28;20029;-63
2021/03/03 10:41:27;;;;;;;7.32;4.97;;;17.70;48.60;;;;;;5044261;28;20523;-61
2021/03/03 10:43:53;;;;;;;9.70;5.50;;;17.70;48.60;;;;;;5042462;28;20557;-62
2021/03/03 10:46:23;;;;;;;7.85;4.43;;;17.70;48.80;;;;;;5044459;28;20023;-64
2021/03/03 10:48:49;;;;;;;8.25;4.70;;;17.70;48.80;;;;;;5043953;28;20029;-59
2021/03/03 10:51:16;;;;;;;6.97;5.20;;;17.70;48.90;;;;;;5042528;28;20447;-62
2021/03/03 10:53:57;;;;;;;6.68;4.80;;;17.60;48.90;;;;;;5043675;28;20021;-63
2021/03/03 10:56:37;;;;;;;6.50;4.38;;;17.60;49.00;;;;;;5043539;28;20612;-62
2021/03/03 10:59:03;;;;;;;7.72;5.05;;;17.60;49.00;;;;;;5044362;28;20083;-62
2021/03/03 11:01:47;;;;;;;5.50;4.10;;;17.60;49.20;;;;;;5024533;28;20500;-62
2021/03/03 11:04:12;;;;;;;6.20;4.55;;;17.60;49.30;;;;;;5043836;28;20025;-59
2021/03/03 11:06:38;;;;;;;6.25;4.25;;;17.50;49.40;;;;;;5026079;28;20104;-63
2021/03/03 11:09:09;;;;;;;5.30;4.45;;;17.50;49.40;;;;;;5043437;28;20087;-63
2021/03/03 11:11:51;;;;;;;5.25;4.60;;;17.50;49.50;;;;;;5024502;28;20142;-64
2021/03/03 11:14:17;;;;;;;7.28;4.43;;;17.50;49.60;;;;;;5024320;28;20025;-62
2021/03/03 11:16:46;;;;;;;5.65;4.22;;;17.50;49.80;;;;;;5023980;28;20050;-61
2021/03/03 11:19:12;;;;;;;5.28;4.00;;;17.50;49.80;;;;;;5024171;28;20811;-63
2021/03/03 11:21:38;;;;;;;6.78;4.15;;;17.50;49.80;;;;;;5023301;28;20057;-63
2021/03/03 11:24:04;;;;;;;6.00;3.95;;;17.50;49.80;;;;;;5023627;28;20040;-63
2021/03/03 11:26:29;;;;;;;6.53;4.88;;;17.50;49.80;;;;;;5022734;28;20060;-59
2021/03/03 11:28:54;;;;;;;6.20;4.28;;;17.50;49.80;;;;;;5023098;28;20059;-63
2021/03/03 11:31:20;;;;;;;8.13;4.10;;;17.50;49.80;;;;;;5023995;28;20596;-64
2021/03/03 11:33:45;;;;;;;5.45;4.65;;;17.50;49.80;;;;;;5023981;28;20026;-64
2021/03/03 11:36:11;;;;;;;7.85;4.70;;;17.50;49.70;;;;;;4989129;28;20017;-64
2021/03/03 11:38:37;;;;;;;5.63;3.90;;;17.50;49.70;;;;;;5006039;28;20030;-65
2021/03/03 11:41:02;;;;;;;6.35;4.63;;;17.50;50.30;;;;;;5043060;28;20056;-64
2021/03/03 11:43:28;;;;;;;6.97;4.45;;;17.50;49.70;;;;;;5044068;28;20347;-64
2021/03/03 11:45:53;;;;;;;10.00;4.82;;;17.50;50.10;;;;;;5042967;28;20045;-64
2021/03/03 11:48:19;;;;;;;10.63;4.25;;;17.50;50.40;;;;;;5026165;28;20028;-63
2021/03/03 11:50:44;;;;;;;7.32;4.05;;;17.60;50.50;;;;;;5012112;28;20075;-60
2021/03/03 11:53:10;;;;;;;7.93;4.30;;;17.60;50.60;;;;;;5047623;28;20048;-64
2021/03/03 11:55:35;;;;;;;7.97;4.32;;;17.60;50.50;;;;;;5029344;28;20025;-63
2021/03/03 11:58:01;;;;;;;5.72;4.07;;;17.70;50.50;;;;;;5047153;28;20099;-58
2021/03/03 12:00:26;;;;;;;6.63;4.20;;;17.70;50.50;;;;;;5046571;28;20041;-59
2021/03/03 12:02:52;;;;;;;6.03;4.88;;;17.70;50.50;;;;;;5028397;28;20067;-64
2021/03/03 12:05:17;;;;;;;7.55;5.13;;;17.70;50.80;;;;;;5027555;28;20029;-61
2021/03/03 12:07:43;;;;;;;7.10;4.65;;;17.70;50.80;;;;;;5045690;28;20049;-63
2021/03/03 12:10:09;;;;;;;10.13;4.95;;;17.60;50.80;;;;;;5046483;28;20421;-63
2021/03/03 12:12:34;;;;;;;10.02;5.85;;;17.70;50.80;;;;;;5028106;28;20530;-63
2021/03/03 12:15:00;;;;;;;7.50;5.38;;;17.70;50.80;;;;;;5027829;28;20037;-60
2021/03/03 12:17:27;;;;;;;9.57;5.15;;;17.70;50.50;;;;;;5045957;28;20089;-62
2021/03/03 12:19:53;;;;;;;7.20;5.18;;;17.70;50.50;;;;;;5045634;28;20037;-64
2021/03/03 12:22:18;;;;;;;7.45;4.78;;;17.70;50.40;;;;;;5044354;28;20059;-62
2021/03/03 12:24:44;;;;;;;6.90;4.68;;;17.60;50.40;;;;;;5046223;28;20162;-63
2021/03/03 12:27:09;;;;;;;9.40;5.38;;;17.60;50.80;;;;;;5047476;28;20098;-68
2021/03/03 12:29:35;;;;;;;8.05;4.72;;;17.70;51.00;;;;;;4991932;28;20080;-61
2021/03/03 12:32:01;;;;;;;9.05;4.53;;;17.70;50.70;;;;;;5045496;28;20518;-65
2021/03/03 12:34:26;;;;;;;7.20;4.05;;;17.70;51.30;;;;;;5047944;28;20492;-66
2021/03/03 12:36:52;;;;;;;6.43;4.47;;;17.60;51.50;;;;;;5048605;28;20101;-65
2021/03/03 12:39:17;;;;;;;6.05;4.40;;;17.60;51.60;;;;;;5048886;28;20029;-65
2021/03/03 12:41:43;;;;;;;4.93;4.13;;;17.60;51.60;;;;;;5047600;28;20587;-64
2021/03/03 12:44:08;;;;;;;8.52;4.38;;;17.60;51.70;;;;;;5048323;28;20531;-63
2021/03/03 12:46:34;;;;;;;7.40;4.20;;;17.60;51.80;;;;;;5029376;28;20120;-62
2021/03/03 12:48:59;;;;;;;9.63;4.63;;;17.60;51.80;;;;;;5046208;28;20021;-64